sensor_id;sensor_type;location;lat;lon;timestamp;P1;durP1;ratioP1;P2;durP2;ratioP2
71856;SDS011;63344;46.980;28.882;2024-03-07T00:00:12;30.13;;;12.73;;
71856;SDS011;63344;46.980;28.882;2024-03-07T00:03:06;31.83;;;11.88;;
71856;SDS011;63344;46.980;28.882;2024-03-07T00:05:34;41.47;;;14.90;;
71856;SDS011;63344;46.980;28.882;2024-03-07T00:08:03;28.58;;;10.65;;
71856;SDS011;63344;46.980;28.882;2024-03-07T00:10:34;28.70;;;10.73;;
71856;SDS011;63344;46.980;28.882;2024-03-07T00:13:03;27.65;;;11.40;;
71856;SDS011;63344;46.980;28.882;2024-03-07T00:15:31;23.30;;;8.90;;
71856;SDS011;63344;46.980;28.882;2024-03-07T00:17:58;31.08;;;12.13;;
71856;SDS011;63344;46.980;28.882;2024-03-07T00:20:27;29.00;;;12.68;;
71856;SDS011;63344;46.980;28.882;2024-03-07T00:22:56;26.60;;;10.25;;
71856;SDS011;63344;46.980;28.882;2024-03-07T00:25:24;32.47;;;11.77;;
71856;SDS011;63344;46.980;28.882;2024-03-07T00:27:53;20.85;;;10.52;;
71856;SDS011;63344;46.980;28.882;2024-03-07T00:30:20;29.27;;;11.02;;
71856;SDS011;63344;46.980;28.882;2024-03-07T00:32:47;25.33;;;9.40;;
71856;SDS011;63344;46.980;28.882;2024-03-07T00:35:15;30.60;;;11.65;;
71856;SDS011;63344;46.980;28.882;2024-03-07T00:37:43;29.30;;;12.65;;
71856;SDS011;63344;46.980;28.882;2024-03-07T00:40:11;22.20;;;7.93;;
71856;SDS011;63344;46.980;28.882;2024-03-07T00:42:41;24.67;;;8.73;;
71856;SDS011;63344;46.980;28.882;2024-03-07T00:45:08;38.13;;;15.25;;
71856;SDS011;63344;46.980;28.882;2024-03-07T00:47:37;33.85;;;12.95;;
71856;SDS011;63344;46.980;28.882;2024-03-07T00:50:05;25.35;;;11.60;;
71856;SDS011;63344;46.980;28.882;2024-03-07T00:52:36;37.28;;;13.07;;
71856;SDS011;63344;46.980;28.882;2024-03-07T00:55:03;34.50;;;12.13;;
71856;SDS011;63344;46.980;28.882;2024-03-07T00:57:35;29.60;;;11.55;;
71856;SDS011;63344;46.980;28.882;2024-03-07T01:00:03;30.65;;;11.73;;
71856;SDS011;63344;46.980;28.882;2024-03-07T01:02:31;34.67;;;12.68;;
71856;SDS011;63344;46.980;28.882;2024-03-07T01:04:58;46.80;;;17.02;;
71856;SDS011;63344;46.980;28.882;2024-03-07T01:07:26;36.83;;;14.50;;
71856;SDS011;63344;46.980;28.882;2024-03-07T01:09:54;51.47;;;17.48;;
71856;SDS011;63344;46.980;28.882;2024-03-07T01:12:35;20.58;;;8.32;;
71856;SDS011;63344;46.980;28.882;2024-03-07T01:15:02;30.90;;;10.52;;
71856;SDS011;63344;46.980;28.882;2024-03-07T01:17:33;39.65;;;10.90;;
71856;SDS011;63344;46.980;28.882;2024-03-07T01:22:31;33.83;;;10.57;;
71856;SDS011;63344;46.980;28.882;2024-03-07T01:24:58;23.52;;;9.93;;
71856;SDS011;63344;46.980;28.882;2024-03-07T01:27:26;28.30;;;10.32;;
71856;SDS011;63344;46.980;28.882;2024-03-07T01:29:53;36.40;;;14.55;;
71856;SDS011;63344;46.980;28.882;2024-03-07T01:32:20;25.77;;;10.52;;
71856;SDS011;63344;46.980;28.882;2024-03-07T01:34:48;37.63;;;13.98;;
71856;SDS011;63344;46.980;28.882;2024-03-07T01:37:15;30.67;;;11.57;;
71856;SDS011;63344;46.980;28.882;2024-03-07T01:39:43;37.10;;;14.65;;
71856;SDS011;63344;46.980;28.882;2024-03-07T01:42:11;47.65;;;13.43;;
71856;SDS011;63344;46.980;28.882;2024-03-07T01:44:38;36.60;;;13.18;;
71856;SDS011;63344;46.980;28.882;2024-03-07T01:47:07;47.05;;;15.32;;
71856;SDS011;63344;46.980;28.882;2024-03-07T01:49:35;46.22;;;15.70;;
71856;SDS011;63344;46.980;28.882;2024-03-07T01:52:02;41.20;;;15.43;;
71856;SDS011;63344;46.980;28.882;2024-03-07T01:54:31;43.03;;;15.27;;
71856;SDS011;63344;46.980;28.882;2024-03-07T01:56:59;33.55;;;10.77;;
71856;SDS011;63344;46.980;28.882;2024-03-07T01:59:27;28.60;;;10.95;;
71856;SDS011;63344;46.980;28.882;2024-03-07T02:01:57;30.23;;;9.73;;
71856;SDS011;63344;46.980;28.882;2024-03-07T02:04:24;32.42;;;11.38;;
71856;SDS011;63344;46.980;28.882;2024-03-07T02:06:51;38.60;;;14.80;;
71856;SDS011;63344;46.980;28.882;2024-03-07T02:09:20;31.02;;;12.35;;
71856;SDS011;63344;46.980;28.882;2024-03-07T02:11:48;37.22;;;13.85;;
71856;SDS011;63344;46.980;28.882;2024-03-07T02:14:16;30.40;;;12.25;;
71856;SDS011;63344;46.980;28.882;2024-03-07T02:16:44;36.42;;;14.18;;
71856;SDS011;63344;46.980;28.882;2024-03-07T02:19:13;35.40;;;13.15;;
71856;SDS011;63344;46.980;28.882;2024-03-07T02:21:43;32.22;;;11.65;;
71856;SDS011;63344;46.980;28.882;2024-03-07T02:24:10;32.88;;;12.95;;
71856;SDS011;63344;46.980;28.882;2024-03-07T02:26:38;44.28;;;17.80;;
71856;SDS011;63344;46.980;28.882;2024-03-07T02:29:06;37.85;;;13.73;;
71856;SDS011;63344;46.980;28.882;2024-03-07T02:31:36;33.35;;;12.65;;
71856;SDS011;63344;46.980;28.882;2024-03-07T02:34:05;52.65;;;16.45;;
71856;SDS011;63344;46.980;28.882;2024-03-07T02:36:34;53.58;;;15.38;;
71856;SDS011;63344;46.980;28.882;2024-03-07T02:39:06;44.15;;;13.63;;
71856;SDS011;63344;46.980;28.882;2024-03-07T02:41:39;28.17;;;10.00;;
71856;SDS011;63344;46.980;28.882;2024-03-07T02:44:07;43.00;;;16.10;;
71856;SDS011;63344;46.980;28.882;2024-03-07T02:46:37;34.60;;;10.90;;
71856;SDS011;63344;46.980;28.882;2024-03-07T02:49:05;32.15;;;11.98;;
71856;SDS011;63344;46.980;28.882;2024-03-07T02:56:37;37.30;;;13.40;;
71856;SDS011;63344;46.980;28.882;2024-03-07T03:11:53;32.35;;;11.90;;
71856;SDS011;63344;46.980;28.882;2024-03-07T03:14:42;36.78;;;12.85;;
71856;SDS011;63344;46.980;28.882;2024-03-07T03:22:32;43.40;;;15.40;;
71856;SDS011;63344;46.980;28.882;2024-03-07T03:26:03;26.48;;;10.43;;
71856;SDS011;63344;46.980;28.882;2024-03-07T03:28:52;41.63;;;14.65;;
71856;SDS011;63344;46.980;28.882;2024-03-07T03:31:58;46.40;;;14.52;;
71856;SDS011;63344;46.980;28.882;2024-03-07T03:34:50;37.05;;;13.30;;
71856;SDS011;63344;46.980;28.882;2024-03-07T03:37:50;34.72;;;11.82;;
71856;SDS011;63344;46.980;28.882;2024-03-07T03:40:41;49.90;;;16.45;;
71856;SDS011;63344;46.980;28.882;2024-03-07T03:47:22;42.40;;;15.30;;
71856;SDS011;63344;46.980;28.882;2024-03-07T03:50:16;38.28;;;12.25;;
71856;SDS011;63344;46.980;28.882;2024-03-07T03:53:20;48.10;;;15.57;;
71856;SDS011;63344;46.980;28.882;2024-03-07T03:56:33;45.00;;;14.45;;
71856;SDS011;63344;46.980;28.882;2024-03-07T04:03:37;39.33;;;13.70;;
71856;SDS011;63344;46.980;28.882;2024-03-07T04:06:30;36.17;;;12.75;;
71856;SDS011;63344;46.980;28.882;2024-03-07T04:09:14;47.15;;;15.23;;
71856;SDS011;63344;46.980;28.882;2024-03-07T04:12:29;45.80;;;13.35;;
71856;SDS011;63344;46.980;28.882;2024-03-07T04:15:36;49.13;;;15.98;;
71856;SDS011;63344;46.980;28.882;2024-03-07T04:27:09;37.58;;;11.65;;
71856;SDS011;63344;46.980;28.882;2024-03-07T04:43:30;28.48;;;9.00;;
71856;SDS011;63344;46.980;28.882;2024-03-07T04:54:24;31.92;;;10.35;;
71856;SDS011;63344;46.980;28.882;2024-03-07T05:03:56;41.95;;;14.98;;
71856;SDS011;63344;46.980;28.882;2024-03-07T05:06:24;24.80;;;8.10;;
71856;SDS011;63344;46.980;28.882;2024-03-07T05:08:51;32.92;;;10.88;;
71856;SDS011;63344;46.980;28.882;2024-03-07T05:11:18;23.30;;;9.68;;
71856;SDS011;63344;46.980;28.882;2024-03-07T05:13:46;37.38;;;13.80;;
71856;SDS011;63344;46.980;28.882;2024-03-07T05:16:15;35.75;;;11.15;;
71856;SDS011;63344;46.980;28.882;2024-03-07T05:18:45;25.17;;;9.15;;
71856;SDS011;63344;46.980;28.882;2024-03-07T05:21:14;34.38;;;13.40;;
71856;SDS011;63344;46.980;28.882;2024-03-07T05:24:05;43.53;;;14.65;;
71856;SDS011;63344;46.980;28.882;2024-03-07T05:26:45;42.30;;;13.50;;
71856;SDS011;63344;46.980;28.882;2024-03-07T05:29:13;39.03;;;13.73;;
71856;SDS011;63344;46.980;28.882;2024-03-07T05:31:42;31.42;;;11.68;;
71856;SDS011;63344;46.980;28.882;2024-03-07T05:34:17;25.88;;;10.70;;
71856;SDS011;63344;46.980;28.882;2024-03-07T05:36:47;29.00;;;9.55;;
71856;SDS011;63344;46.980;28.882;2024-03-07T05:39:16;28.85;;;11.07;;
71856;SDS011;63344;46.980;28.882;2024-03-07T05:41:46;27.70;;;8.43;;
71856;SDS011;63344;46.980;28.882;2024-03-07T05:44:14;35.33;;;10.25;;
71856;SDS011;63344;46.980;28.882;2024-03-07T05:46:42;29.48;;;11.57;;
71856;SDS011;63344;46.980;28.882;2024-03-07T05:49:16;31.55;;;11.20;;
71856;SDS011;63344;46.980;28.882;2024-03-07T05:51:44;33.95;;;13.68;;
71856;SDS011;63344;46.980;28.882;2024-03-07T05:54:13;27.85;;;9.40;;
71856;SDS011;63344;46.980;28.882;2024-03-07T05:56:40;39.25;;;12.88;;
71856;SDS011;63344;46.980;28.882;2024-03-07T05:59:08;32.83;;;11.30;;
71856;SDS011;63344;46.980;28.882;2024-03-07T06:01:39;27.98;;;11.02;;
71856;SDS011;63344;46.980;28.882;2024-03-07T06:04:09;24.83;;;8.88;;
71856;SDS011;63344;46.980;28.882;2024-03-07T06:06:37;24.75;;;7.70;;
71856;SDS011;63344;46.980;28.882;2024-03-07T06:09:06;20.50;;;7.28;;
71856;SDS011;63344;46.980;28.882;2024-03-07T06:11:36;34.72;;;12.57;;
71856;SDS011;63344;46.980;28.882;2024-03-07T06:14:05;27.65;;;10.10;;
71856;SDS011;63344;46.980;28.882;2024-03-07T06:16:37;28.10;;;9.35;;
71856;SDS011;63344;46.980;28.882;2024-03-07T06:19:06;34.15;;;9.48;;
71856;SDS011;63344;46.980;28.882;2024-03-07T06:21:37;27.27;;;8.50;;
71856;SDS011;63344;46.980;28.882;2024-03-07T06:24:09;29.42;;;10.00;;
71856;SDS011;63344;46.980;28.882;2024-03-07T06:26:38;25.27;;;9.88;;
71856;SDS011;63344;46.980;28.882;2024-03-07T06:29:26;34.90;;;13.10;;
71856;SDS011;63344;46.980;28.882;2024-03-07T06:31:55;31.67;;;11.20;;
71856;SDS011;63344;46.980;28.882;2024-03-07T06:34:22;26.10;;;10.32;;
71856;SDS011;63344;46.980;28.882;2024-03-07T06:36:49;33.53;;;10.35;;
71856;SDS011;63344;46.980;28.882;2024-03-07T06:39:17;23.90;;;9.43;;
71856;SDS011;63344;46.980;28.882;2024-03-07T06:41:48;22.63;;;8.25;;
71856;SDS011;63344;46.980;28.882;2024-03-07T06:44:16;18.85;;;6.95;;
71856;SDS011;63344;46.980;28.882;2024-03-07T06:46:49;34.83;;;11.43;;
71856;SDS011;63344;46.980;28.882;2024-03-07T06:49:16;29.27;;;11.23;;
71856;SDS011;63344;46.980;28.882;2024-03-07T06:51:43;27.75;;;9.50;;
71856;SDS011;63344;46.980;28.882;2024-03-07T06:54:11;24.00;;;10.07;;
71856;SDS011;63344;46.980;28.882;2024-03-07T06:56:38;24.40;;;9.60;;
71856;SDS011;63344;46.980;28.882;2024-03-07T06:59:07;32.90;;;10.55;;
71856;SDS011;63344;46.980;28.882;2024-03-07T07:01:34;35.28;;;14.80;;
71856;SDS011;63344;46.980;28.882;2024-03-07T07:04:02;25.90;;;9.63;;
71856;SDS011;63344;46.980;28.882;2024-03-07T07:06:30;23.15;;;8.48;;
71856;SDS011;63344;46.980;28.882;2024-03-07T07:08:58;28.10;;;10.73;;
71856;SDS011;63344;46.980;28.882;2024-03-07T07:11:29;29.70;;;10.98;;
71856;SDS011;63344;46.980;28.882;2024-03-07T07:14:01;29.05;;;11.63;;
71856;SDS011;63344;46.980;28.882;2024-03-07T07:16:31;23.38;;;10.77;;
71856;SDS011;63344;46.980;28.882;2024-03-07T07:19:02;33.45;;;11.30;;
71856;SDS011;63344;46.980;28.882;2024-03-07T07:21:30;33.85;;;16.42;;
71856;SDS011;63344;46.980;28.882;2024-03-07T07:23:57;36.53;;;14.95;;
71856;SDS011;63344;46.980;28.882;2024-03-07T07:26:25;28.35;;;11.93;;
71856;SDS011;63344;46.980;28.882;2024-03-07T07:28:53;25.77;;;10.13;;
71856;SDS011;63344;46.980;28.882;2024-03-07T07:31:21;30.25;;;11.18;;
71856;SDS011;63344;46.980;28.882;2024-03-07T07:33:48;27.60;;;12.05;;
71856;SDS011;63344;46.980;28.882;2024-03-07T07:36:16;27.17;;;10.55;;
71856;SDS011;63344;46.980;28.882;2024-03-07T07:38:45;21.00;;;8.75;;
71856;SDS011;63344;46.980;28.882;2024-03-07T07:41:13;22.23;;;9.77;;
71856;SDS011;63344;46.980;28.882;2024-03-07T07:43:42;18.50;;;7.28;;
71856;SDS011;63344;46.980;28.882;2024-03-07T07:46:10;26.90;;;10.75;;
71856;SDS011;63344;46.980;28.882;2024-03-07T07:48:37;31.95;;;14.50;;
71856;SDS011;63344;46.980;28.882;2024-03-07T07:51:05;25.02;;;10.23;;
71856;SDS011;63344;46.980;28.882;2024-03-07T07:53:36;23.00;;;9.25;;
71856;SDS011;63344;46.980;28.882;2024-03-07T07:56:03;34.85;;;15.27;;
71856;SDS011;63344;46.980;28.882;2024-03-07T07:58:32;28.83;;;11.60;;
71856;SDS011;63344;46.980;28.882;2024-03-07T08:01:00;30.48;;;11.43;;
71856;SDS011;63344;46.980;28.882;2024-03-07T08:03:28;29.67;;;11.35;;
71856;SDS011;63344;46.980;28.882;2024-03-07T08:06:03;35.00;;;12.90;;
71856;SDS011;63344;46.980;28.882;2024-03-07T08:08:38;31.30;;;9.45;;
71856;SDS011;63344;46.980;28.882;2024-03-07T08:11:09;22.92;;;8.45;;
71856;SDS011;63344;46.980;28.882;2024-03-07T08:13:40;25.70;;;11.13;;
71856;SDS011;63344;46.980;28.882;2024-03-07T08:16:07;24.00;;;10.13;;
71856;SDS011;63344;46.980;28.882;2024-03-07T08:18:42;38.85;;;16.45;;
71856;SDS011;63344;46.980;28.882;2024-03-07T08:21:23;24.88;;;8.63;;
71856;SDS011;63344;46.980;28.882;2024-03-07T08:23:51;40.85;;;14.73;;
71856;SDS011;63344;46.980;28.882;2024-03-07T08:26:18;23.08;;;8.48;;
71856;SDS011;63344;46.980;28.882;2024-03-07T08:28:46;33.30;;;11.18;;
71856;SDS011;63344;46.980;28.882;2024-03-07T08:31:16;25.15;;;10.48;;
71856;SDS011;63344;46.980;28.882;2024-03-07T08:33:44;23.88;;;9.10;;
71856;SDS011;63344;46.980;28.882;2024-03-07T08:36:12;30.30;;;10.85;;
71856;SDS011;63344;46.980;28.882;2024-03-07T08:38:40;25.83;;;11.18;;
71856;SDS011;63344;46.980;28.882;2024-03-07T08:41:09;25.00;;;11.05;;
71856;SDS011;63344;46.980;28.882;2024-03-07T08:43:38;22.52;;;9.52;;
71856;SDS011;63344;46.980;28.882;2024-03-07T08:46:19;32.47;;;12.60;;
71856;SDS011;63344;46.980;28.882;2024-03-07T08:49:03;22.98;;;9.52;;
71856;SDS011;63344;46.980;28.882;2024-03-07T08:51:31;29.88;;;11.40;;
71856;SDS011;63344;46.980;28.882;2024-03-07T08:53:59;24.42;;;10.73;;
71856;SDS011;63344;46.980;28.882;2024-03-07T08:56:26;23.92;;;9.32;;
71856;SDS011;63344;46.980;28.882;2024-03-07T08:58:57;30.33;;;10.93;;
71856;SDS011;63344;46.980;28.882;2024-03-07T09:01:24;27.15;;;11.45;;
71856;SDS011;63344;46.980;28.882;2024-03-07T09:03:52;26.85;;;11.95;;
71856;SDS011;63344;46.980;28.882;2024-03-07T09:06:20;28.40;;;10.85;;
71856;SDS011;63344;46.980;28.882;2024-03-07T09:08:51;24.33;;;10.68;;
71856;SDS011;63344;46.980;28.882;2024-03-07T09:11:46;25.50;;;11.43;;
71856;SDS011;63344;46.980;28.882;2024-03-07T09:14:17;24.77;;;10.18;;
71856;SDS011;63344;46.980;28.882;2024-03-07T09:16:44;20.90;;;9.13;;
71856;SDS011;63344;46.980;28.882;2024-03-07T09:19:14;25.83;;;11.23;;
71856;SDS011;63344;46.980;28.882;2024-03-07T09:21:47;23.30;;;9.52;;
71856;SDS011;63344;46.980;28.882;2024-03-07T09:24:17;25.45;;;10.57;;
71856;SDS011;63344;46.980;28.882;2024-03-07T09:26:49;27.65;;;10.30;;
71856;SDS011;63344;46.980;28.882;2024-03-07T09:29:25;26.77;;;9.40;;
71856;SDS011;63344;46.980;28.882;2024-03-07T09:32:06;23.52;;;9.88;;
71856;SDS011;63344;46.980;28.882;2024-03-07T09:34:58;27.17;;;11.00;;
71856;SDS011;63344;46.980;28.882;2024-03-07T09:37:42;21.08;;;8.32;;
71856;SDS011;63344;46.980;28.882;2024-03-07T09:40:24;19.67;;;8.57;;
71856;SDS011;63344;46.980;28.882;2024-03-07T09:42:55;14.20;;;6.97;;
71856;SDS011;63344;46.980;28.882;2024-03-07T09:45:26;17.08;;;7.68;;
71856;SDS011;63344;46.980;28.882;2024-03-07T09:47:57;20.05;;;9.07;;
71856;SDS011;63344;46.980;28.882;2024-03-07T09:50:26;18.65;;;7.80;;
71856;SDS011;63344;46.980;28.882;2024-03-07T09:52:55;27.13;;;11.07;;
71856;SDS011;63344;46.980;28.882;2024-03-07T09:55:25;30.13;;;12.13;;
71856;SDS011;63344;46.980;28.882;2024-03-07T09:57:56;32.60;;;10.98;;
71856;SDS011;63344;46.980;28.882;2024-03-07T10:00:28;19.42;;;9.45;;
71856;SDS011;63344;46.980;28.882;2024-03-07T10:05:45;26.02;;;11.48;;
71856;SDS011;63344;46.980;28.882;2024-03-07T10:08:16;26.50;;;10.77;;
71856;SDS011;63344;46.980;28.882;2024-03-07T10:10:46;19.77;;;9.82;;
71856;SDS011;63344;46.980;28.882;2024-03-07T10:13:16;21.33;;;9.48;;
71856;SDS011;63344;46.980;28.882;2024-03-07T10:15:45;19.05;;;9.52;;
71856;SDS011;63344;46.980;28.882;2024-03-07T10:18:12;26.98;;;10.60;;
71856;SDS011;63344;46.980;28.882;2024-03-07T10:20:42;18.05;;;8.43;;
71856;SDS011;63344;46.980;28.882;2024-03-07T10:23:11;17.90;;;8.50;;
71856;SDS011;63344;46.980;28.882;2024-03-07T10:25:47;19.52;;;7.80;;
71856;SDS011;63344;46.980;28.882;2024-03-07T10:28:17;29.92;;;11.07;;
71856;SDS011;63344;46.980;28.882;2024-03-07T10:30:45;25.83;;;11.27;;
71856;SDS011;63344;46.980;28.882;2024-03-07T10:33:12;18.60;;;8.88;;
71856;SDS011;63344;46.980;28.882;2024-03-07T10:35:40;16.88;;;7.45;;
71856;SDS011;63344;46.980;28.882;2024-03-07T10:38:07;19.98;;;8.68;;
71856;SDS011;63344;46.980;28.882;2024-03-07T10:40:42;21.65;;;9.20;;
71856;SDS011;63344;46.980;28.882;2024-03-07T10:43:11;21.90;;;9.05;;
71856;SDS011;63344;46.980;28.882;2024-03-07T10:45:46;26.42;;;11.18;;
71856;SDS011;63344;46.980;28.882;2024-03-07T10:48:17;22.27;;;11.25;;
71856;SDS011;63344;46.980;28.882;2024-03-07T10:50:59;19.60;;;9.60;;
71856;SDS011;63344;46.980;28.882;2024-03-07T10:54:07;22.45;;;9.90;;
71856;SDS011;63344;46.980;28.882;2024-03-07T10:59:27;19.95;;;8.43;;
71856;SDS011;63344;46.980;28.882;2024-03-07T11:02:51;22.88;;;9.57;;
71856;SDS011;63344;46.980;28.882;2024-03-07T11:05:04;23.13;;;10.75;;
71856;SDS011;63344;46.980;28.882;2024-03-07T11:07:40;11.77;;;5.10;;
71856;SDS011;63344;46.980;28.882;2024-03-07T11:10:24;23.90;;;10.45;;
71856;SDS011;63344;46.980;28.882;2024-03-07T11:12:53;25.58;;;10.90;;
71856;SDS011;63344;46.980;28.882;2024-03-07T11:15:23;19.50;;;8.90;;
71856;SDS011;63344;46.980;28.882;2024-03-07T11:17:56;22.73;;;10.77;;
71856;SDS011;63344;46.980;28.882;2024-03-07T11:20:24;16.00;;;8.13;;
71856;SDS011;63344;46.980;28.882;2024-03-07T11:25:22;12.02;;;5.82;;
71856;SDS011;63344;46.980;28.882;2024-03-07T11:27:56;19.30;;;9.20;;
71856;SDS011;63344;46.980;28.882;2024-03-07T11:30:25;23.60;;;9.45;;
71856;SDS011;63344;46.980;28.882;2024-03-07T11:32:53;22.10;;;8.88;;
71856;SDS011;63344;46.980;28.882;2024-03-07T11:35:33;24.40;;;10.38;;
71856;SDS011;63344;46.980;28.882;2024-03-07T11:38:06;22.05;;;8.75;;
71856;SDS011;63344;46.980;28.882;2024-03-07T11:43:12;17.55;;;7.00;;
71856;SDS011;63344;46.980;28.882;2024-03-07T11:45:46;21.30;;;7.88;;
71856;SDS011;63344;46.980;28.882;2024-03-07T11:48:28;23.00;;;10.73;;
71856;SDS011;63344;46.980;28.882;2024-03-07T11:50:58;21.52;;;9.43;;
71856;SDS011;63344;46.980;28.882;2024-03-07T11:53:31;16.35;;;6.65;;
71856;SDS011;63344;46.980;28.882;2024-03-07T11:58:40;21.35;;;7.25;;
71856;SDS011;63344;46.980;28.882;2024-03-07T12:01:23;18.08;;;5.82;;
71856;SDS011;63344;46.980;28.882;2024-03-07T12:03:56;13.18;;;6.10;;
71856;SDS011;63344;46.980;28.882;2024-03-07T12:06:24;21.05;;;10.43;;
71856;SDS011;63344;46.980;28.882;2024-03-07T12:08:51;24.10;;;9.40;;
71856;SDS011;63344;46.980;28.882;2024-03-07T12:11:19;18.83;;;8.65;;
71856;SDS011;63344;46.980;28.882;2024-03-07T12:13:48;21.00;;;10.57;;
71856;SDS011;63344;46.980;28.882;2024-03-07T12:16:15;20.80;;;8.82;;
71856;SDS011;63344;46.980;28.882;2024-03-07T12:18:43;22.73;;;8.60;;
71856;SDS011;63344;46.980;28.882;2024-03-07T12:21:12;16.63;;;8.18;;
71856;SDS011;63344;46.980;28.882;2024-03-07T12:23:41;22.70;;;10.32;;
71856;SDS011;63344;46.980;28.882;2024-03-07T12:26:08;24.30;;;11.20;;
71856;SDS011;63344;46.980;28.882;2024-03-07T12:28:37;22.70;;;8.52;;
71856;SDS011;63344;46.980;28.882;2024-03-07T12:31:06;18.48;;;8.30;;
71856;SDS011;63344;46.980;28.882;2024-03-07T12:33:43;12.75;;;6.60;;
71856;SDS011;63344;46.980;28.882;2024-03-07T12:36:14;19.25;;;7.45;;
71856;SDS011;63344;46.980;28.882;2024-03-07T12:38:45;16.63;;;8.30;;
71856;SDS011;63344;46.980;28.882;2024-03-07T12:41:13;15.20;;;6.43;;
71856;SDS011;63344;46.980;28.882;2024-03-07T12:43:45;22.10;;;9.43;;
71856;SDS011;63344;46.980;28.882;2024-03-07T12:46:13;19.25;;;8.07;;
71856;SDS011;63344;46.980;28.882;2024-03-07T12:48:43;14.93;;;7.28;;
71856;SDS011;63344;46.980;28.882;2024-03-07T12:51:13;24.48;;;11.25;;
71856;SDS011;63344;46.980;28.882;2024-03-07T12:53:46;16.90;;;7.38;;
71856;SDS011;63344;46.980;28.882;2024-03-07T12:56:15;20.05;;;8.57;;
71856;SDS011;63344;46.980;28.882;2024-03-07T12:58:47;20.33;;;8.07;;
71856;SDS011;63344;46.980;28.882;2024-03-07T13:01:22;20.25;;;8.60;;
71856;SDS011;63344;46.980;28.882;2024-03-07T13:04:01;18.80;;;7.68;;
71856;SDS011;63344;46.980;28.882;2024-03-07T13:06:28;22.63;;;10.90;;
71856;SDS011;63344;46.980;28.882;2024-03-07T13:08:57;14.95;;;6.95;;
71856;SDS011;63344;46.980;28.882;2024-03-07T13:11:27;20.27;;;7.50;;
71856;SDS011;63344;46.980;28.882;2024-03-07T13:13:58;16.58;;;7.20;;
71856;SDS011;63344;46.980;28.882;2024-03-07T13:16:25;14.02;;;6.63;;
71856;SDS011;63344;46.980;28.882;2024-03-07T13:19:06;18.23;;;7.63;;
71856;SDS011;63344;46.980;28.882;2024-03-07T13:21:33;20.17;;;7.15;;
71856;SDS011;63344;46.980;28.882;2024-03-07T13:24:03;15.70;;;7.85;;
71856;SDS011;63344;46.980;28.882;2024-03-07T13:26:32;14.90;;;6.45;;
71856;SDS011;63344;46.980;28.882;2024-03-07T13:29:02;23.48;;;9.40;;
71856;SDS011;63344;46.980;28.882;2024-03-07T13:31:29;17.42;;;7.80;;
71856;SDS011;63344;46.980;28.882;2024-03-07T13:33:58;18.23;;;8.25;;
71856;SDS011;63344;46.980;28.882;2024-03-07T13:36:29;22.40;;;10.07;;
71856;SDS011;63344;46.980;28.882;2024-03-07T13:39:08;17.40;;;8.77;;
71856;SDS011;63344;46.980;28.882;2024-03-07T13:41:41;14.15;;;7.20;;
71856;SDS011;63344;46.980;28.882;2024-03-07T13:44:09;18.20;;;7.75;;
71856;SDS011;63344;46.980;28.882;2024-03-07T13:46:37;21.60;;;10.35;;
71856;SDS011;63344;46.980;28.882;2024-03-07T13:49:05;23.58;;;9.05;;
71856;SDS011;63344;46.980;28.882;2024-03-07T13:51:40;19.10;;;8.23;;
71856;SDS011;63344;46.980;28.882;2024-03-07T13:54:19;14.05;;;6.60;;
71856;SDS011;63344;46.980;28.882;2024-03-07T13:57:19;25.17;;;10.15;;
71856;SDS011;63344;46.980;28.882;2024-03-07T13:59:53;23.38;;;9.63;;
71856;SDS011;63344;46.980;28.882;2024-03-07T14:02:36;16.88;;;7.95;;
71856;SDS011;63344;46.980;28.882;2024-03-07T14:14:44;22.58;;;9.27;;
71856;SDS011;63344;46.980;28.882;2024-03-07T14:31:12;18.70;;;8.25;;
71856;SDS011;63344;46.980;28.882;2024-03-07T14:36:35;22.98;;;9.85;;
71856;SDS011;63344;46.980;28.882;2024-03-07T14:39:07;22.38;;;8.55;;
71856;SDS011;63344;46.980;28.882;2024-03-07T14:41:51;21.02;;;8.93;;
71856;SDS011;63344;46.980;28.882;2024-03-07T14:44:22;16.50;;;7.82;;
71856;SDS011;63344;46.980;28.882;2024-03-07T14:47:06;19.40;;;7.68;;
71856;SDS011;63344;46.980;28.882;2024-03-07T14:49:38;16.50;;;7.15;;
71856;SDS011;63344;46.980;28.882;2024-03-07T14:52:06;19.30;;;8.60;;
71856;SDS011;63344;46.980;28.882;2024-03-07T14:54:38;20.83;;;7.68;;
71856;SDS011;63344;46.980;28.882;2024-03-07T14:57:07;13.50;;;5.63;;
71856;SDS011;63344;46.980;28.882;2024-03-07T14:59:38;24.70;;;9.57;;
71856;SDS011;63344;46.980;28.882;2024-03-07T15:02:08;21.85;;;9.02;;
71856;SDS011;63344;46.980;28.882;2024-03-07T15:04:38;18.80;;;8.55;;
71856;SDS011;63344;46.980;28.882;2024-03-07T15:07:08;12.18;;;6.38;;
71856;SDS011;63344;46.980;28.882;2024-03-07T15:09:37;14.57;;;6.13;;
71856;SDS011;63344;46.980;28.882;2024-03-07T15:12:07;21.50;;;9.27;;
71856;SDS011;63344;46.980;28.882;2024-03-07T15:14:42;23.73;;;7.07;;
71856;SDS011;63344;46.980;28.882;2024-03-07T15:17:20;16.20;;;7.35;;
71856;SDS011;63344;46.980;28.882;2024-03-07T15:19:54;13.00;;;5.85;;
71856;SDS011;63344;46.980;28.882;2024-03-07T15:22:26;24.33;;;9.18;;
71856;SDS011;63344;46.980;28.882;2024-03-07T15:24:57;11.93;;;6.15;;
71856;SDS011;63344;46.980;28.882;2024-03-07T15:27:29;23.98;;;9.20;;
71856;SDS011;63344;46.980;28.882;2024-03-07T15:29:57;21.48;;;7.60;;
71856;SDS011;63344;46.980;28.882;2024-03-07T15:32:24;19.30;;;7.85;;
71856;SDS011;63344;46.980;28.882;2024-03-07T15:34:59;20.52;;;7.90;;
71856;SDS011;63344;46.980;28.882;2024-03-07T15:37:28;13.35;;;6.78;;
71856;SDS011;63344;46.980;28.882;2024-03-07T15:39:58;25.60;;;9.45;;
71856;SDS011;63344;46.980;28.882;2024-03-07T15:42:26;21.13;;;7.85;;
71856;SDS011;63344;46.980;28.882;2024-03-07T15:44:58;18.70;;;8.80;;
71856;SDS011;63344;46.980;28.882;2024-03-07T15:47:26;12.90;;;6.07;;
71856;SDS011;63344;46.980;28.882;2024-03-07T15:49:57;17.17;;;8.00;;
71856;SDS011;63344;46.980;28.882;2024-03-07T15:52:25;16.48;;;6.03;;
71856;SDS011;63344;46.980;28.882;2024-03-07T15:54:52;23.42;;;7.82;;
71856;SDS011;63344;46.980;28.882;2024-03-07T15:57:22;17.58;;;7.88;;
71856;SDS011;63344;46.980;28.882;2024-03-07T15:59:49;21.85;;;8.88;;
71856;SDS011;63344;46.980;28.882;2024-03-07T16:02:21;24.17;;;9.35;;
71856;SDS011;63344;46.980;28.882;2024-03-07T16:04:48;19.27;;;9.38;;
71856;SDS011;63344;46.980;28.882;2024-03-07T16:07:17;18.02;;;7.05;;
71856;SDS011;63344;46.980;28.882;2024-03-07T16:09:44;19.73;;;8.55;;
71856;SDS011;63344;46.980;28.882;2024-03-07T16:12:11;13.63;;;6.78;;
71856;SDS011;63344;46.980;28.882;2024-03-07T16:14:38;14.50;;;6.03;;
71856;SDS011;63344;46.980;28.882;2024-03-07T16:17:10;18.77;;;8.23;;
71856;SDS011;63344;46.980;28.882;2024-03-07T16:19:38;14.27;;;5.15;;
71856;SDS011;63344;46.980;28.882;2024-03-07T16:22:05;18.90;;;8.27;;
71856;SDS011;63344;46.980;28.882;2024-03-07T16:24:33;24.80;;;8.48;;
71856;SDS011;63344;46.980;28.882;2024-03-07T16:27:10;16.60;;;6.88;;
71856;SDS011;63344;46.980;28.882;2024-03-07T16:29:37;16.55;;;6.15;;
71856;SDS011;63344;46.980;28.882;2024-03-07T16:32:05;18.35;;;7.55;;
71856;SDS011;63344;46.980;28.882;2024-03-07T16:34:38;17.83;;;8.18;;